createdAt,value
2018-09-18T00:03:41.418Z,15
2018-09-18T00:08:43.831Z,14.9
2018-09-18T00:13:46.318Z,14.8
2018-09-18T00:18:48.708Z,14.7
2018-09-18T00:23:51.479Z,14.8
2018-09-18T00:28:53.593Z,15
2018-09-18T00:33:56.034Z,15.2
2018-09-18T00:38:58.474Z,15.3
2018-09-18T00:49:03.408Z,15.5
2018-09-18T00:54:05.806Z,15.5
2018-09-18T00:59:08.235Z,15.5
2018-09-18T01:04:10.781Z,15.5
2018-09-18T01:09:13.103Z,15.5
2018-09-18T01:14:15.564Z,15.5
2018-09-18T01:19:18.071Z,15.5
2018-09-18T01:24:20.448Z,15.5
2018-09-18T01:29:22.931Z,15.4
2018-09-18T01:34:25.362Z,15.4
2018-09-18T01:39:27.781Z,15.3
2018-09-18T01:44:30.285Z,15.3
2018-09-18T01:49:32.645Z,15.2
2018-09-18T01:54:35.099Z,15.2
2018-09-18T01:59:37.611Z,15.2
2018-09-18T02:04:40.092Z,15.2
2018-09-18T02:09:42.394Z,15.2
2018-09-18T02:14:44.999Z,15.2
2018-09-18T02:19:47.336Z,15.2
2018-09-18T02:24:49.723Z,15.3
2018-09-18T02:29:52.253Z,15.3
2018-09-18T02:34:54.630Z,15.2
2018-09-18T02:39:57.065Z,15.1
2018-09-18T02:44:59.522Z,14.9
2018-09-18T02:50:06.941Z,14.8
2018-09-18T02:55:04.391Z,14.6
2018-09-18T03:00:06.863Z,14.4
2018-09-18T03:05:09.288Z,14.3
2018-09-18T03:10:11.717Z,14.1
2018-09-18T03:15:14.130Z,14.1
2018-09-18T03:20:16.565Z,14.2
2018-09-18T03:25:19.050Z,14.4
2018-09-18T03:30:21.451Z,14.5
2018-09-18T03:35:23.948Z,14.5
2018-09-18T03:40:26.419Z,14.4
2018-09-18T03:45:28.778Z,14.2
2018-09-18T03:50:31.318Z,14
2018-09-18T03:55:33.701Z,13.9
2018-09-18T04:00:36.205Z,13.8
2018-09-18T04:05:38.868Z,13.7
2018-09-18T04:10:41.043Z,13.5
2018-09-18T04:15:43.435Z,13.4
2018-09-18T04:20:45.898Z,13.4
2018-09-18T04:25:48.366Z,13.3
2018-09-18T04:30:50.840Z,13.2
2018-09-18T04:35:53.295Z,13.2
2018-09-18T04:40:55.641Z,13.1
2018-09-18T04:45:58.157Z,13
2018-09-18T04:51:00.526Z,13
2018-09-18T04:56:02.996Z,13
2018-09-18T05:01:05.404Z,13
2018-09-18T05:06:07.828Z,12.9
2018-09-18T05:11:10.258Z,12.9
2018-09-18T05:16:12.703Z,12.9
2018-09-18T05:21:15.144Z,12.9
2018-09-18T05:26:17.590Z,12.9
2018-09-18T05:31:20.024Z,12.9
2018-09-18T05:36:22.486Z,13
2018-09-18T05:41:25.183Z,13
2018-09-18T05:46:27.377Z,13
2018-09-18T05:51:29.861Z,13.1
2018-09-18T05:56:32.210Z,13.1
2018-09-18T06:01:34.651Z,13.2
2018-09-18T06:06:37.155Z,13.3
2018-09-18T06:11:39.538Z,13.3
2018-09-18T06:16:42.084Z,13.4
2018-09-18T06:21:44.420Z,13.5
2018-09-18T06:26:46.942Z,13.6
2018-09-18T06:31:49.318Z,13.6
2018-09-18T06:36:51.818Z,13.7
2018-09-18T06:41:54.200Z,13.8
2018-09-18T06:46:56.628Z,13.9
2018-09-18T06:51:59.055Z,14
2018-09-18T06:57:01.641Z,14.1
2018-09-18T07:02:04.059Z,14.3
2018-09-18T07:07:06.427Z,14.4
2018-09-18T07:12:08.832Z,14.7
2018-09-18T07:17:11.288Z,14.9
2018-09-18T07:22:13.763Z,15.3
2018-09-18T07:27:16.143Z,15.5
2018-09-18T07:32:18.591Z,15.7
2018-09-18T07:37:21.131Z,15.8
2018-09-18T07:42:23.489Z,16
2018-09-18T07:47:26.017Z,16.2
2018-09-18T07:52:28.407Z,16.4
2018-09-18T07:57:30.811Z,16.5
2018-09-18T08:02:33.273Z,16.7
2018-09-18T08:07:35.719Z,16.8
2018-09-18T08:12:38.318Z,17
2018-09-18T08:17:40.621Z,17.2
2018-09-18T08:22:43.070Z,17.3
2018-09-18T08:27:45.426Z,17.6
2018-09-18T08:32:47.927Z,17.9
2018-09-18T08:42:52.799Z,18.4
2018-09-18T08:47:55.259Z,18.6
2018-09-18T08:52:57.721Z,18.7
2018-09-18T08:58:00.160Z,18.9
2018-09-18T09:03:02.576Z,19
2018-09-18T09:08:05.118Z,19.3
2018-09-18T09:13:07.658Z,19.4
2018-09-18T09:18:10.023Z,19.5
2018-09-18T09:23:12.309Z,19.7
2018-09-18T09:28:14.795Z,19.8
2018-09-18T09:33:17.192Z,20
2018-09-18T09:38:19.703Z,20.1
2018-09-18T09:43:22.375Z,20.2
2018-09-18T09:48:24.775Z,20.3
2018-09-18T09:53:27.003Z,20.5
2018-09-18T09:58:29.384Z,20.7
2018-09-18T10:03:31.848Z,20.8
2018-09-18T10:08:34.286Z,21
2018-09-18T10:13:36.716Z,21.2
2018-09-18T10:18:39.332Z,21.5
2018-09-18T10:23:41.638Z,21.7
2018-09-18T10:28:44.039Z,21.8
2018-09-18T10:38:48.901Z,22.4
2018-09-18T10:43:51.698Z,22.7
2018-09-18T10:48:53.799Z,23.1
2018-09-18T10:53:56.218Z,23.5
2018-09-18T10:58:58.718Z,23.8
2018-09-18T11:04:01.224Z,24.3
2018-09-18T11:09:03.641Z,24.6
2018-09-18T11:14:06.371Z,25
2018-09-18T11:19:08.507Z,25.4
2018-09-18T11:24:11.005Z,25.8
2018-09-18T11:29:13.366Z,26
2018-09-18T11:34:15.807Z,26.2
2018-09-18T11:39:18.286Z,26.6
2018-09-18T11:44:20.737Z,27.2
2018-09-18T11:49:23.120Z,27.9
2018-09-18T11:54:25.616Z,28.3
2018-09-18T11:59:28.127Z,29
2018-09-18T12:04:30.523Z,29.8
2018-09-18T12:09:32.872Z,30.5
2018-09-18T12:14:35.311Z,30.9
2018-09-18T12:19:37.868Z,31.4
2018-09-18T12:24:40.190Z,32.1
2018-09-18T12:29:42.644Z,32.3
2018-09-18T12:34:45.108Z,32.7
2018-09-18T12:39:47.567Z,33.3
2018-09-18T12:44:49.969Z,33.9
2018-09-18T12:49:52.665Z,34.1
2018-09-18T12:54:54.911Z,34.6
2018-09-18T12:59:57.593Z,34.8
2018-09-18T13:05:00.005Z,34.9
2018-09-18T13:10:02.391Z,35.2
2018-09-18T13:15:04.695Z,35.4
2018-09-18T13:20:07.296Z,36.1
2018-09-18T13:25:09.503Z,36.5
2018-09-18T13:30:11.985Z,37.2
2018-09-18T13:35:14.450Z,37.7
2018-09-18T13:40:16.869Z,37.9
2018-09-18T13:45:19.357Z,37
2018-09-18T13:50:21.834Z,36
2018-09-18T13:55:24.207Z,36.7
2018-09-18T14:00:26.877Z,37.6
2018-09-18T14:05:29.132Z,38.1
2018-09-18T14:10:31.500Z,38.7
2018-09-18T14:15:33.987Z,38.8
2018-09-18T14:20:36.389Z,39.6
2018-09-18T14:25:38.911Z,40.1
2018-09-18T14:30:41.358Z,40.1
2018-09-18T14:35:43.788Z,40.8
2018-09-18T14:40:46.137Z,41.7
2018-09-18T14:45:48.642Z,41.4
2018-09-18T14:50:51.128Z,41.3
2018-09-18T14:55:53.454Z,41.6
2018-09-18T15:00:56.198Z,41.5
2018-09-18T15:05:58.400Z,41.7
2018-09-18T15:11:00.859Z,41.3
2018-09-18T15:16:03.252Z,41.4
2018-09-18T15:21:05.713Z,41.5
2018-09-18T15:26:08.148Z,41.1
2018-09-18T15:31:10.759Z,40.9
2018-09-18T15:36:13.026Z,40.6
2018-09-18T15:41:15.457Z,40.3
2018-09-18T15:46:17.956Z,39.9
2018-09-18T15:51:20.376Z,38.5
2018-09-18T15:56:22.816Z,36.9
2018-09-18T16:01:25.344Z,35.6
2018-09-18T16:06:28.030Z,35.2
2018-09-18T16:11:30.221Z,35
2018-09-18T16:16:32.619Z,34.3
2018-09-18T16:21:35.060Z,32.4
2018-09-18T16:26:37.444Z,30.8
2018-09-18T16:31:39.919Z,29.4
2018-09-18T16:36:42.366Z,28.6
2018-09-18T16:41:45.220Z,27.9
2018-09-18T16:46:47.299Z,27.3
2018-09-18T16:51:49.659Z,26.9
2018-09-18T16:56:52.131Z,26.5
2018-09-18T17:01:54.555Z,26.2
2018-09-18T17:06:57.277Z,25.8
2018-09-18T17:11:59.424Z,25.5
2018-09-18T17:17:01.913Z,25.3
2018-09-18T17:22:04.331Z,25.1
2018-09-18T17:27:06.746Z,24.9
2018-09-18T17:32:09.208Z,24.6
2018-09-18T17:37:11.770Z,24.4
2018-09-18T17:42:14.108Z,24.2
2018-09-18T17:47:16.596Z,24
2018-09-18T17:52:19.035Z,23.9
2018-09-18T17:57:21.492Z,23.7
2018-09-18T18:02:23.938Z,23.6
2018-09-18T18:07:26.284Z,23.5
2018-09-18T18:12:28.758Z,23.4
2018-09-18T18:17:31.229Z,23.4
2018-09-18T18:22:33.626Z,23.4
2018-09-18T18:27:36.154Z,23.3
2018-09-18T18:32:38.527Z,23.3
2018-09-18T18:37:40.981Z,23.2
2018-09-18T18:42:43.652Z,23.1
2018-09-18T18:47:46.004Z,23
2018-09-18T18:52:48.270Z,22.9
2018-09-18T18:57:50.722Z,22.8
2018-09-18T19:02:53.402Z,22.7
2018-09-18T19:07:55.653Z,22.7
2018-09-18T19:12:58.042Z,22.6
2018-09-18T19:18:00.595Z,22.6
2018-09-18T19:23:02.912Z,22.5
2018-09-18T19:28:05.432Z,22.4
2018-09-18T19:33:07.967Z,22.3
2018-09-18T19:43:12.790Z,21.8
2018-09-18T19:48:15.156Z,21.5
2018-09-18T19:53:17.586Z,21.2
2018-09-18T19:58:20.014Z,21
2018-09-18T20:03:22.555Z,20.8
2018-09-18T20:08:24.973Z,20.6
2018-09-18T20:13:27.463Z,20.4
2018-09-18T20:18:29.768Z,20.2
2018-09-18T20:28:34.697Z,20
2018-09-18T20:33:37.180Z,19.9
2018-09-18T20:38:39.811Z,19.7
2018-09-18T20:43:42.157Z,19.6
2018-09-18T20:48:44.449Z,19.5
2018-09-18T20:53:46.856Z,19.4
2018-09-18T20:58:49.299Z,19.3
2018-09-18T21:03:51.847Z,19.2
2018-09-18T21:08:54.179Z,19.1
2018-09-18T21:13:57.261Z,19.1
2018-09-18T21:18:59.082Z,19.2
2018-09-18T21:24:01.558Z,19.3
2018-09-18T21:29:03.962Z,19.4
2018-09-18T21:34:06.458Z,19.4
2018-09-18T21:39:08.840Z,19.3
2018-09-18T21:44:12.576Z,19.2
2018-09-18T21:49:13.730Z,19.3
2018-09-18T21:54:16.254Z,19.2
2018-09-18T21:59:18.693Z,19.1
2018-09-18T22:04:21.131Z,19
2018-09-18T22:09:23.499Z,18.8
2018-09-18T22:14:26.085Z,18.6
2018-09-18T22:19:28.379Z,18.4
2018-09-18T22:24:30.836Z,18.3
2018-09-18T22:29:33.314Z,18.2
2018-09-18T22:34:35.675Z,18.1
2018-09-18T22:39:38.126Z,18
2018-09-18T22:44:40.556Z,17.9
2018-09-18T22:49:43.033Z,17.8
2018-09-18T22:54:45.428Z,17.7
2018-09-18T22:59:47.911Z,17.6
2018-09-18T23:04:50.579Z,17.5
2018-09-18T23:09:52.947Z,17.5
2018-09-18T23:14:55.194Z,17.4
2018-09-18T23:19:57.684Z,17.3
2018-09-18T23:25:00.154Z,17.3
2018-09-18T23:30:02.762Z,17.3
2018-09-18T23:35:05.048Z,17.2
2018-09-18T23:40:07.778Z,17.2
2018-09-18T23:45:09.882Z,17.1
2018-09-18T23:55:14.762Z,17
